Monarch, Colorado
Current Conditions -  °F | °C
As of 7:14 PM on Saturday 22 Nov 2014 (Local Time) from KMYP Reporting Station
Overcast Overcast  
Wind Chill: -17°   Ceiling: 100
Heat Index: -7°   Visibility: NA
Dew Point: -8°   Wind: 28mph
Humidity: 93%   Direction: 250°WSW
Pressure: 29.97"   Gusts: 32mph
Location:  38.54°N, 106.31°W
Report Text: KMYP 230214Z AUTO 25024G28KT OVC001 M07/M08 A2997 RMK AO2 PWINO
Loading
Personal Weather Stations






























Interactive Weather Map New forecast layout! Learn more

10-Day Weather Forecast

Advertisements
Track Severe Weather on mobile